AirNav   Air Wisconsin pilot careers
 
 1516 users online  

XA20 Landry's Warehouse Heliport
Houston, Texas, USA

GOING TO HOUSTON?


FAA INFORMATION EFFECTIVE 15 AUGUST 2019

Location

FAA Identifier: XA20
Lat/Long: 29-47-09.0000N 095-27-30.0000W
29-47.150000N 095-27.500000W
29.7858333,-95.4583333
(estimated)
Elevation: 68 ft. / 21 m (estimated)
From city: 5 miles NW of HOUSTON, TX
Time zone: UTC -5 (UTC -6 during Standard Time)
Zip code: 77055

Heliport Operations

Heliport use: Private use. Permission required prior to landing
Activation date: 06/2004
Control tower: no
ARTCC: HOUSTON CENTER
FSS: MONTGOMERY COUNTY FLIGHT SERVICE STATION
Attendance: UNATNDD
Wind indicator: yes
Segmented circle: no
Lights: SS-SR

Heliport Communications

WX ASOS at HOU (13 nm SE): PHONE 713-847-1462
WX ASOS at IAH (13 nm NE): PHONE 281-443-6397
WX ASOS at SGR (14 nm SW): 118.125 (281-242-7605)
WX AWOS-3 at AXH (17 nm S): 123.625 (281-431-6572)
WX ASOS at DWH (17 nm N): PHONE 281-251-7853
WX ASOS at LVJ (19 nm SE): 118.525 (281-992-1853)

Nearby radio navigation aids

VOR radial/distance  VOR name  Freq  Var
IAHr205/11.8HUMBLE VORTAC116.6005E
HUBr305/12.3HOBBY VOR/DME117.1005E
MHFr284/39.7TRINITY VOR/DME113.6007E

Heliport Services

Runway Information

Helipad H1

Dimensions: 25 x 25 ft. / 8 x 8 m
Surface: concrete
Runway edge lights: PERI
Traffic pattern: leftleft

Heliport Ownership and Management from official FAA records

Ownership: Privately-owned
Owner: LANDRY'S, INC.
1510 WEST LOOP SOUTH
HOUSTON, TX 77027
Manager: KASSEL COON
8251 TRAVELAIR ST.
HOUSTON, TX 77061
Phone 713-645-9191

Additional Remarks

A52-H1 30 FT BLDGS NORTH, EAST & WEST; 28 FT PLINES SOUTH & WEST; 375 FT TOWER NE; AND 250 FT LGT POLES SW, SE & EAST OF LNDG PAD.
ARPT DESIRES HELIPORT NOT BE CHARTED.
FOR CD CTC HOUSTON ARTCC AT 281-230-5622.

Instrument Procedures

There are no published instrument procedures at XA20.

Some nearby airports with instrument procedures:

KIWS - West Houston Airport (11 nm W)
KHOU - William P Hobby Airport (13 nm SE)
KIAH - George Bush Intercontinental/Houston Airport (13 nm NE)
KSGR - Sugar Land Regional Airport (14 nm SW)
KAXH - Houston Southwest Airport (17 nm S)
KDWH - David Wayne Hooks Memorial Airport (17 nm N)
KEFD - Ellington Airport (19 nm SE)
KLVJ - Pearland Regional Airport (19 nm SE)
 
Loc | Ops | Rwys | IFR | FBO | Links
Com | Nav | Svcs | Stats | Notes
Area around XA20 (Landry's Warehouse Heliport)
 
Road maps at: MapQuest Bing Google
 
Aerial photo
No photo
 
Sectional chart

 
Airport distance calculator
Flying to Landry's Warehouse Heliport? Find the distance to fly.

From to XA20

Sunrise and sunset
Times for 21-Aug-2019
 Local
(UTC-5)
 Zulu
(UTC)
Morning civil twilight06:2911:29
Sunrise06:5411:54
Sunset19:5600:56
Evening civil twilight20:2101:21

Current date and time
Zulu (UTC)  21-Aug-2019 19:07:53
Local (UTC-5)  21-Aug-2019 14:07:53
 
METAR
KHOU 
13nm SE 
211853Z 17011KT 10SM FEW045TCU SCT100 SCT250 32/22 A3000 RMK AO2 PK WND 17027/1826 SLP164 TCU NE CB DSNT SW T03170222
KIAH 
14nm N 
211853Z 19005KT 10SM SCT055 SCT100 SCT250 36/20 A3000 RMK AO2 SLP156 TCU DSNT SE-SW T03560200
KSGR 
14nm SW 
211853Z 24003KT 10SM BKN080 33/22 A3001 RMK AO2 RAB1756E09 SLP162 P0001 T03330222
KAXH 
17nm S 
211855Z AUTO 16006KT 10SM CLR 29/22 A3003 RMK AO2 T02900221
KDWH 
18nm N 
211853Z 13004KT 10SM SCT060 34/20 A3000 RMK AO2 SLP157 T03440200
KEFD 
19nm SE 
211850Z 17009KT 10SM BKN030 BKN090 33/23 A3001
KLVJ 
19nm SE 
211853Z AUTO 20006KT 10SM BKN100 32/20 A3003 RMK AO2 SLP167 T03220200
KTME 
23nm W 
211855Z AUTO 15008G13KT 9SM SCT050 BKN065 BKN095 34/22 A3002 RMK AO2
TAF
KHOU 
13nm SE 
211720Z 2118/2218 16008KT P6SM VCTS SCT050CB SCT250 FM212200 16005KT P6SM SCT250 FM221200 10001KT P6SM BKN250 FM221700 16005KT P6SM VCSH SCT050 SCT250
KIAH 
14nm N 
211720Z 2118/2224 20004KT P6SM SCT025 SCT250 FM211900 17008KT P6SM VCSH SCT050 SCT250 FM220000 14005KT P6SM SCT250 FM220800 VRB04KT P6SM BKN250 FM221800 16005KT P6SM VCSH SCT050 SCT250
KSGR 
14nm SW 
211720Z 2118/2218 16008KT P6SM VCTS SCT050CB FM212200 16005KT P6SM SCT250 FM221700 16005KT P6SM VCSH SCT050 SCT250
KEFD 
19nm SE 
202150Z 2020/2202 17012KT 9999 FEW025 SCT050 QNH2999INS TEMPO 2020/2021 17010G15KT 8000 -TSRA BKN035CB BECMG 2101/2102 VRB06KT 9999 SCT060 BKN250 QNH2995INS BECMG 2114/2115 17012KT 9999 SCT035 BKN050 QNH2994INS TEMPO 2118/2123 16010G15KT 8000 -TSRA BKN030CB TX33/2022Z TN26/2112Z
NOTAMs
Click for the latest NOTAMs
NOTAMs are issued by the DoD/FAA and will open in a separate window not controlled by AirNav.

 

 
 

Would you like to see your business listed on this page?

 If your business provides an interesting product or service to pilots, flight crews, aircraft, or users of the Landry's Warehouse Heliport, you should consider listing it here.  To start the listing process, click on the button below
 
Add a business
 

Other Pages about Landry's Warehouse Heliport

Update a link
 
Copyright © AirNav, LLC. All rights reserved. Privacy Policy  Contact